createdAt,value
2017-12-01T00:02:12.093Z,1.03
2017-12-01T00:04:39.554Z,1.03
2017-12-01T00:07:07.314Z,0.96
2017-12-01T00:09:34.782Z,0.95
2017-12-01T00:12:02.225Z,0.93
2017-12-01T00:14:30.009Z,0.88
2017-12-01T00:16:57.466Z,0.82
2017-12-01T00:19:24.921Z,0.81
2017-12-01T00:26:21.185Z,0.76
2017-12-01T00:28:48.645Z,0.74
2017-12-01T00:31:16.105Z,0.78
2017-12-01T00:33:43.869Z,0.80
2017-12-01T00:36:11.325Z,0.76
2017-12-01T00:38:38.784Z,0.83
2017-12-01T00:41:06.552Z,0.91
2017-12-01T00:43:34.005Z,0.94
2017-12-01T00:46:01.470Z,0.87
2017-12-01T00:48:29.245Z,0.87
2017-12-01T00:50:56.705Z,0.94
2017-12-01T00:53:24.169Z,0.96
2017-12-01T00:55:51.874Z,1.02
2017-12-01T00:58:19.335Z,0.94
2017-12-01T01:00:46.803Z,0.89
2017-12-01T01:03:14.621Z,0.95
2017-12-01T01:05:42.082Z,0.95
2017-12-01T01:08:09.540Z,1.06
2017-12-01T01:10:37.299Z,1.08
2017-12-01T01:13:04.753Z,1.09
2017-12-01T01:15:32.210Z,1.16
2017-12-01T01:17:59.797Z,1.04
2017-12-01T01:20:27.249Z,1.20
2017-12-01T01:22:54.710Z,1.26
2017-12-01T01:25:22.673Z,1.17
2017-12-01T01:27:50.829Z,1.31
2017-12-01T01:30:18.284Z,1.33
2017-12-01T01:32:46.280Z,1.27
2017-12-01T01:35:13.737Z,1.44
2017-12-01T01:37:41.195Z,1.36
2017-12-01T01:40:09.287Z,1.37
2017-12-01T01:42:36.745Z,1.46
2017-12-01T01:45:04.197Z,1.38
2017-12-01T01:47:31.968Z,1.35
2017-12-01T01:49:59.429Z,1.41
2017-12-01T01:52:26.889Z,1.23
2017-12-01T01:54:54.649Z,1.33
2017-12-01T01:57:22.143Z,1.40
2017-12-01T01:59:49.584Z,1.63
2017-12-01T02:02:17.654Z,1.54
2017-12-01T02:04:45.136Z,1.43
2017-12-01T02:07:12.596Z,1.48
2017-12-01T02:09:40.340Z,1.52
2017-12-01T02:12:07.799Z,1.61
2017-12-01T02:14:35.258Z,1.66
2017-12-01T02:17:03.332Z,1.50
2017-12-01T02:19:30.782Z,1.46
2017-12-01T02:21:58.253Z,1.66
2017-12-01T02:24:26.040Z,1.70
2017-12-01T02:26:53.502Z,1.49
2017-12-01T02:29:21.888Z,1.39
2017-12-01T02:31:49.628Z,1.39
2017-12-01T02:34:17.095Z,1.31
2017-12-01T02:36:44.557Z,1.35
2017-12-01T02:39:12.321Z,1.61
2017-12-01T02:41:39.783Z,1.68
2017-12-01T02:44:07.234Z,1.59
2017-12-01T02:46:34.999Z,1.59
2017-12-01T02:49:02.454Z,1.69
2017-12-01T02:51:29.996Z,1.64
2017-12-01T02:53:57.690Z,1.58
2017-12-01T02:56:25.137Z,1.61
2017-12-01T02:58:52.598Z,1.58
2017-12-01T03:01:20.676Z,1.49
2017-12-01T03:03:48.133Z,1.44
2017-12-01T03:06:15.583Z,1.49
2017-12-01T03:08:43.670Z,1.37
2017-12-01T03:11:11.117Z,1.37
2017-12-01T03:13:38.569Z,1.38
2017-12-01T03:16:06.304Z,1.33
2017-12-01T03:18:33.766Z,1.33
2017-12-01T03:21:01.243Z,1.33
2017-12-01T03:23:29.052Z,1.33
2017-12-01T03:25:56.510Z,1.35
2017-12-01T03:28:23.965Z,1.36
2017-12-01T03:30:52.446Z,1.19
2017-12-01T03:33:19.906Z,1.04
2017-12-01T03:35:47.360Z,0.99
2017-12-01T03:38:15.037Z,0.99
2017-12-01T03:40:42.492Z,0.91
2017-12-01T03:43:09.946Z,0.84
2017-12-01T03:45:37.725Z,0.94
2017-12-01T03:48:05.178Z,0.88
2017-12-01T03:50:32.628Z,0.96
2017-12-01T03:53:00.420Z,0.78
2017-12-01T03:55:27.873Z,0.68
2017-12-01T03:57:55.335Z,0.76
2017-12-01T04:00:23.110Z,0.64
2017-12-01T04:02:50.564Z,0.55
2017-12-01T04:05:18.029Z,0.69
2017-12-01T04:07:45.789Z,0.61
2017-12-01T04:10:13.249Z,0.34
2017-12-01T04:12:40.712Z,0.36
2017-12-01T04:15:08.469Z,0.48
2017-12-01T04:17:35.930Z,0.37
2017-12-01T04:20:03.393Z,0.33
2017-12-01T04:22:31.462Z,0.30
2017-12-01T04:24:58.929Z,0.20
2017-12-01T04:27:26.392Z,0.12
2017-12-01T04:29:54.159Z,0.07
2017-12-01T04:32:21.997Z,0.02
2017-12-01T04:34:49.458Z,0.02
2017-12-01T04:37:17.149Z,-0.13
2017-12-01T04:39:44.621Z,-0.02
2017-12-01T04:42:12.081Z,-0.05
2017-12-01T04:44:40.137Z,0.08
2017-12-01T04:47:07.590Z,0.29
2017-12-01T04:49:35.108Z,0.15
2017-12-01T04:52:03.147Z,-0.18
2017-12-01T04:54:30.627Z,0.03
2017-12-01T04:56:58.101Z,0.00
2017-12-01T04:59:26.133Z,0.10
2017-12-01T05:01:53.589Z,0.04
2017-12-01T05:04:21.081Z,-0.06
2017-12-01T05:06:48.821Z,-0.09
2017-12-01T05:09:16.289Z,-0.13
2017-12-01T05:11:43.760Z,-0.04
2017-12-01T05:14:11.478Z,0.10
2017-12-01T05:16:38.937Z,0.03
2017-12-01T05:19:06.410Z,0.13
2017-12-01T05:21:34.513Z,0.13
2017-12-01T05:24:01.973Z,-0.03
2017-12-01T05:26:29.433Z,0.03
2017-12-01T05:28:57.498Z,-0.01
2017-12-01T05:31:24.969Z,-0.09
2017-12-01T05:33:52.803Z,-0.12
2017-12-01T05:36:20.533Z,-0.11
2017-12-01T05:38:48.005Z,-0.07
2017-12-01T05:41:16.108Z,-0.19
2017-12-01T05:43:44.095Z,-0.22
2017-12-01T05:46:11.565Z,-0.31
2017-12-01T05:48:39.025Z,-0.17
2017-12-01T05:51:06.786Z,-0.20
2017-12-01T05:53:34.906Z,-0.11
2017-12-01T05:56:02.630Z,-0.21
2017-12-01T05:58:30.381Z,-0.32
2017-12-01T06:00:57.860Z,-0.40
2017-12-01T06:03:25.322Z,-0.48
2017-12-01T06:05:53.076Z,-0.37
2017-12-01T06:08:20.541Z,-0.22
2017-12-01T06:10:48.029Z,-0.08
2017-12-01T06:13:15.778Z,0.06
2017-12-01T06:15:43.238Z,0.13
2017-12-01T06:18:10.705Z,0.02
2017-12-01T06:20:38.320Z,0.15
2017-12-01T06:23:05.775Z,0.14
2017-12-01T06:25:33.250Z,-0.04
2017-12-01T06:28:00.997Z,0.19
2017-12-01T06:30:28.451Z,0.19
2017-12-01T06:32:55.899Z,0.23
2017-12-01T06:35:24.139Z,0.18
2017-12-01T06:37:51.607Z,0.28
2017-12-01T06:40:19.057Z,0.24
2017-12-01T06:42:46.923Z,0.31
2017-12-01T06:45:14.377Z,0.27
2017-12-01T06:47:41.832Z,0.31
2017-12-01T06:50:09.505Z,0.32
2017-12-01T06:52:37.415Z,0.43
2017-12-01T06:55:04.894Z,0.42
2017-12-01T06:57:32.541Z,0.37
2017-12-01T06:59:59.999Z,0.41
2017-12-01T07:02:27.465Z,0.60
2017-12-01T07:04:55.487Z,0.58
2017-12-01T07:07:22.953Z,0.54
2017-12-01T07:09:50.411Z,0.63
2017-12-01T07:12:18.180Z,0.65
2017-12-01T07:14:45.648Z,0.59
2017-12-01T07:17:13.114Z,0.59
2017-12-01T07:19:41.142Z,0.65
2017-12-01T07:22:08.599Z,0.62
2017-12-01T07:24:36.075Z,0.50
2017-12-01T07:27:08.477Z,0.47
2017-12-01T07:29:35.942Z,0.61
2017-12-01T07:32:03.408Z,0.77
2017-12-01T07:34:31.150Z,0.89
2017-12-01T07:36:58.998Z,0.69
2017-12-01T07:39:26.466Z,0.73
2017-12-01T07:41:54.453Z,0.81
2017-12-01T07:44:26.881Z,0.85
2017-12-01T07:46:54.368Z,0.81
2017-12-01T07:49:22.333Z,0.80
2017-12-01T07:51:49.792Z,0.84
2017-12-01T07:54:17.254Z,1.18
2017-12-01T07:56:45.057Z,1.15
2017-12-01T07:59:12.535Z,1.02
2017-12-01T08:01:39.997Z,1.08
2017-12-01T08:04:07.743Z,1.31
2017-12-01T08:06:35.205Z,1.16
2017-12-01T08:09:02.675Z,1.44
2017-12-01T08:11:30.431Z,1.23
2017-12-01T08:13:57.886Z,1.26
2017-12-01T08:16:37.501Z,1.47
2017-12-01T08:19:06.432Z,1.49
2017-12-01T08:21:45.781Z,1.52
2017-12-01T08:24:24.977Z,1.42
2017-12-01T08:26:52.978Z,1.34
2017-12-01T08:29:20.445Z,0.92
2017-12-01T08:31:47.902Z,1.11
2017-12-01T08:34:15.825Z,1.43
2017-12-01T08:36:43.287Z,1.26
2017-12-01T08:39:11.273Z,1.34
2017-12-01T08:41:39.283Z,1.41
2017-12-01T08:44:06.740Z,1.25
2017-12-01T08:46:34.201Z,1.07
2017-12-01T08:49:01.967Z,1.57
2017-12-01T08:51:29.438Z,1.51
2017-12-01T08:53:56.896Z,1.69
2017-12-01T08:56:24.641Z,1.61
2017-12-01T08:58:52.092Z,1.87
2017-12-01T09:01:19.551Z,1.21
2017-12-01T09:03:47.332Z,1.54
2017-12-01T09:06:14.785Z,1.70
2017-12-01T09:08:42.338Z,1.74
2017-12-01T09:11:10.317Z,1.79
2017-12-01T09:13:37.774Z,1.94
2017-12-01T09:16:05.229Z,2.18
2017-12-01T09:18:33.009Z,2.07
2017-12-01T09:21:00.469Z,1.87
2017-12-01T09:23:27.938Z,2.11
2017-12-01T09:25:55.701Z,1.83
2017-12-01T09:28:23.176Z,2.19
2017-12-01T09:30:50.630Z,2.25
2017-12-01T09:33:18.376Z,2.27
2017-12-01T09:35:45.838Z,2.20
2017-12-01T09:38:13.288Z,2.44
2017-12-01T09:40:41.398Z,2.41
2017-12-01T09:43:08.861Z,2.87
2017-12-01T09:45:36.311Z,2.44
2017-12-01T09:48:04.062Z,3.08
2017-12-01T09:50:31.520Z,3.25
2017-12-01T09:52:58.985Z,3.06
2017-12-01T09:55:26.751Z,2.96
2017-12-01T09:57:54.203Z,3.37
2017-12-01T10:00:21.661Z,3.50
2017-12-01T10:02:49.569Z,3.61
2017-12-01T10:05:17.031Z,3.99
2017-12-01T10:07:44.491Z,3.93
2017-12-01T10:10:12.121Z,3.61
2017-12-01T10:12:39.573Z,3.82
2017-12-01T10:15:07.027Z,2.76
2017-12-01T10:17:35.126Z,2.77
2017-12-01T10:20:02.595Z,3.04
2017-12-01T10:22:30.068Z,2.62
2017-12-01T10:24:57.694Z,2.73
2017-12-01T10:27:25.161Z,2.69
2017-12-01T10:29:52.620Z,2.48
2017-12-01T10:32:20.485Z,2.40
2017-12-01T10:34:47.946Z,2.99
2017-12-01T10:37:15.400Z,2.50
2017-12-01T10:39:43.186Z,2.47
2017-12-01T10:42:10.735Z,2.73
2017-12-01T10:44:38.198Z,2.66
2017-12-01T10:47:05.918Z,3.02
2017-12-01T10:49:33.381Z,3.12
2017-12-01T10:52:00.841Z,3.02
2017-12-01T10:54:28.862Z,3.05
2017-12-01T10:56:56.326Z,3.11
2017-12-01T10:59:23.794Z,3.00
2017-12-01T11:01:51.449Z,3.23
2017-12-01T11:04:18.901Z,3.15
2017-12-01T11:06:46.362Z,3.28
2017-12-01T11:09:14.233Z,3.77
2017-12-01T11:11:41.686Z,3.09
2017-12-01T11:14:09.145Z,3.39
2017-12-01T11:16:36.725Z,3.34
2017-12-01T11:19:04.183Z,3.49
2017-12-01T11:21:31.646Z,3.80
2017-12-01T11:23:59.615Z,4.31
2017-12-01T11:26:27.074Z,4.61
2017-12-01T11:28:54.535Z,5.52
2017-12-01T11:31:22.302Z,4.74
2017-12-01T11:33:49.805Z,4.18
2017-12-01T11:36:17.254Z,4.50
2017-12-01T11:38:44.995Z,4.67
2017-12-01T11:41:12.452Z,6.09
2017-12-01T11:43:40.598Z,4.79
2017-12-01T11:46:08.601Z,4.66
2017-12-01T11:48:36.048Z,4.69
2017-12-01T11:51:03.498Z,4.47
2017-12-01T11:53:31.286Z,4.24
2017-12-01T11:55:58.756Z,3.88
2017-12-01T11:58:26.217Z,3.74
2017-12-01T12:00:55.699Z,3.70
2017-12-01T12:03:23.141Z,3.54
2017-12-01T12:05:50.584Z,3.68
2017-12-01T12:08:18.185Z,3.79
2017-12-01T12:10:45.629Z,4.32
2017-12-01T12:13:13.096Z,5.57
2017-12-01T12:15:40.908Z,4.44
2017-12-01T12:18:08.367Z,4.26
2017-12-01T12:20:35.824Z,4.13
2017-12-01T12:23:03.470Z,6.02
2017-12-01T12:25:30.925Z,4.65
2017-12-01T12:27:58.385Z,4.57
2017-12-01T12:30:26.250Z,4.50
2017-12-01T12:32:53.694Z,4.34
2017-12-01T12:35:21.150Z,4.27
2017-12-01T12:37:48.800Z,4.63
2017-12-01T12:40:16.261Z,4.00
2017-12-01T12:42:43.729Z,4.56
2017-12-01T12:45:11.926Z,4.23
2017-12-01T12:47:40.210Z,6.15
2017-12-01T12:50:07.661Z,5.21
2017-12-01T12:52:35.537Z,6.86
2017-12-01T12:55:03.000Z,5.76
2017-12-01T12:57:30.459Z,5.90
2017-12-01T12:59:58.222Z,6.73
2017-12-01T13:02:25.679Z,7.86
2017-12-01T13:04:53.149Z,9.19
2017-12-01T13:07:20.914Z,9.02
2017-12-01T13:09:48.381Z,9.47
2017-12-01T13:12:15.838Z,8.47
2017-12-01T13:14:43.608Z,7.26
2017-12-01T13:17:11.067Z,8.08
2017-12-01T13:19:38.542Z,7.71
2017-12-01T13:22:06.302Z,7.77
2017-12-01T13:24:33.767Z,6.28
2017-12-01T13:27:01.224Z,6.06
2017-12-01T13:29:28.975Z,5.81
2017-12-01T13:31:56.425Z,5.35
2017-12-01T13:34:23.895Z,6.07
2017-12-01T13:36:51.602Z,6.15
2017-12-01T13:39:19.069Z,6.16
2017-12-01T13:41:46.542Z,5.64
2017-12-01T13:44:14.350Z,5.97
2017-12-01T13:46:42.195Z,8.05
2017-12-01T13:49:09.672Z,8.57
2017-12-01T13:51:37.660Z,9.09
2017-12-01T13:54:05.155Z,10.29
2017-12-01T13:56:32.629Z,10.06
2017-12-01T13:59:00.285Z,9.04
2017-12-01T14:01:27.758Z,9.96
2017-12-01T14:03:55.226Z,10.17
2017-12-01T14:06:22.895Z,9.31
2017-12-01T14:08:50.363Z,9.04
2017-12-01T14:11:17.819Z,8.57
2017-12-01T14:13:45.721Z,9.68
2017-12-01T14:16:13.169Z,9.22
2017-12-01T14:18:40.629Z,7.26
2017-12-01T14:21:08.405Z,7.99
2017-12-01T14:23:35.863Z,7.81
2017-12-01T14:26:03.347Z,7.32
2017-12-01T14:28:31.121Z,6.72
2017-12-01T14:30:58.572Z,6.75
2017-12-01T14:33:26.029Z,6.56
2017-12-01T14:35:53.747Z,6.13
2017-12-01T14:38:21.205Z,5.65
2017-12-01T14:40:48.677Z,6.15
2017-12-01T14:43:16.317Z,4.85
2017-12-01T14:45:43.770Z,4.57
2017-12-01T14:48:11.762Z,4.16
2017-12-01T14:50:39.450Z,3.91
2017-12-01T14:53:06.905Z,3.77
2017-12-01T14:55:34.368Z,3.56
2017-12-01T14:58:02.150Z,3.35
2017-12-01T15:00:29.613Z,3.32
2017-12-01T15:02:57.072Z,3.14
2017-12-01T15:05:24.986Z,2.91
2017-12-01T15:07:52.437Z,2.93
2017-12-01T15:10:19.897Z,2.74
2017-12-01T15:12:47.824Z,2.70
2017-12-01T15:15:15.277Z,2.65
2017-12-01T15:17:42.728Z,2.59
2017-12-01T15:20:10.514Z,2.49
2017-12-01T15:22:37.989Z,2.36
2017-12-01T15:25:05.456Z,2.26
2017-12-01T15:27:33.202Z,2.21
2017-12-01T15:30:00.687Z,2.13
2017-12-01T15:32:28.158Z,2.03
2017-12-01T15:34:55.906Z,2.05
2017-12-01T15:37:23.365Z,1.88
2017-12-01T15:39:50.821Z,1.88
2017-12-01T15:42:18.407Z,1.85
2017-12-01T15:44:45.872Z,1.75
2017-12-01T15:47:13.566Z,1.79
2017-12-01T15:49:41.865Z,1.69
2017-12-01T15:52:09.317Z,1.65
2017-12-01T15:54:36.774Z,1.48
2017-12-01T15:57:04.555Z,1.41
2017-12-01T15:59:32.011Z,1.40
2017-12-01T16:01:59.471Z,1.33
2017-12-01T16:04:27.132Z,1.32
2017-12-01T16:06:54.584Z,1.30
2017-12-01T16:09:22.040Z,1.31
2017-12-01T16:11:49.945Z,1.29
2017-12-01T16:14:17.406Z,1.28
2017-12-01T16:16:45.646Z,1.34
2017-12-01T16:19:13.537Z,1.34
2017-12-01T16:21:41.049Z,1.41
2017-12-01T16:24:08.502Z,1.50
2017-12-01T16:26:36.238Z,1.53
2017-12-01T16:29:03.703Z,1.60
2017-12-01T16:31:31.160Z,1.62
2017-12-01T16:33:58.914Z,1.59
2017-12-01T16:36:26.372Z,1.56
2017-12-01T16:38:53.824Z,1.55
2017-12-01T16:41:21.490Z,1.60
2017-12-01T16:43:48.944Z,1.55
2017-12-01T16:46:16.412Z,1.59
2017-12-01T16:48:44.914Z,1.20
2017-12-01T16:51:12.749Z,1.21
2017-12-01T16:53:40.211Z,1.23
2017-12-01T16:56:08.208Z,1.30
2017-12-01T16:58:35.730Z,1.27
2017-12-01T17:01:03.200Z,1.36
2017-12-01T17:03:30.844Z,1.41
2017-12-01T17:05:58.704Z,1.39
2017-12-01T17:08:26.171Z,1.32
2017-12-01T17:10:53.878Z,1.31
2017-12-01T17:13:22.145Z,1.24
2017-12-01T17:15:51.133Z,1.25
2017-12-01T17:18:19.086Z,1.08
2017-12-01T17:20:46.809Z,1.02
2017-12-01T17:23:14.274Z,0.94
2017-12-01T17:25:42.850Z,0.89
2017-12-01T17:28:11.847Z,0.87
2017-12-01T17:30:39.611Z,0.88
2017-12-01T17:33:07.762Z,1.01
2017-12-01T17:35:35.218Z,0.97
2017-12-01T17:38:03.437Z,0.93
2017-12-01T17:40:32.917Z,1.00
2017-12-01T17:43:00.464Z,1.06
2017-12-01T17:45:28.156Z,1.10
2017-12-01T17:47:55.866Z,1.03
2017-12-01T17:50:23.331Z,1.04
2017-12-01T17:52:53.163Z,1.06
2017-12-01T17:55:21.119Z,1.09
2017-12-01T17:57:48.836Z,1.06
2017-12-01T18:00:16.293Z,1.08
2017-12-01T18:02:44.630Z,1.17
2017-12-01T18:05:13.549Z,1.21
2017-12-01T18:07:41.026Z,1.17
2017-12-01T18:10:09.209Z,1.25
2017-12-01T18:12:36.665Z,1.21
2017-12-01T18:15:04.124Z,1.26
2017-12-01T18:17:31.886Z,1.27
2017-12-01T18:19:59.345Z,1.29
2017-12-01T18:22:26.809Z,1.32
2017-12-01T18:24:54.586Z,1.29
2017-12-01T18:27:22.045Z,1.33
2017-12-01T18:29:49.493Z,1.31
2017-12-01T18:32:17.270Z,1.35
2017-12-01T18:34:44.722Z,1.31
2017-12-01T18:37:12.173Z,1.25
2017-12-01T18:39:39.958Z,1.15
2017-12-01T18:42:07.423Z,1.07
2017-12-01T18:44:34.887Z,1.07
2017-12-01T18:47:02.648Z,1.02
2017-12-01T18:49:30.104Z,0.98
2017-12-01T18:51:57.562Z,1.10
2017-12-01T18:54:25.627Z,1.10
2017-12-01T18:56:53.077Z,1.03
2017-12-01T18:59:20.538Z,1.08
2017-12-01T19:01:48.321Z,1.07
2017-12-01T19:04:15.781Z,1.07
2017-12-01T19:06:43.245Z,1.04
2017-12-01T19:09:11.016Z,1.04
2017-12-01T19:13:51.817Z,1.10
2017-12-01T19:16:19.564Z,1.22
2017-12-01T19:18:47.020Z,1.22
2017-12-01T19:21:14.494Z,1.24
2017-12-01T19:23:42.254Z,1.26
2017-12-01T19:26:09.713Z,1.23
2017-12-01T19:28:37.175Z,1.05
2017-12-01T19:31:04.766Z,1.35
2017-12-01T19:33:32.228Z,1.26
2017-12-01T19:35:59.701Z,1.12
2017-12-01T19:38:27.631Z,1.14
2017-12-01T19:40:55.092Z,1.27
2017-12-01T19:43:22.560Z,1.27
2017-12-01T19:45:50.321Z,1.36
2017-12-01T19:48:17.778Z,1.58
2017-12-01T19:50:45.250Z,1.83
2017-12-01T19:53:13.026Z,1.55
2017-12-01T19:55:40.847Z,1.51
2017-12-01T19:58:08.307Z,1.36
2017-12-01T20:00:35.997Z,1.30
2017-12-01T20:03:03.456Z,1.19
2017-12-01T20:05:30.929Z,1.33
2017-12-01T20:07:58.675Z,1.29
2017-12-01T20:10:26.129Z,1.24
2017-12-01T20:12:53.589Z,1.15
2017-12-01T20:15:21.410Z,1.31
2017-12-01T20:17:48.874Z,1.11
2017-12-01T20:20:16.333Z,1.33
2017-12-01T20:22:44.365Z,2.12
2017-12-01T20:25:11.825Z,1.53
2017-12-01T20:27:39.290Z,1.45
2017-12-01T20:30:07.070Z,1.47
2017-12-01T20:32:34.537Z,1.53
2017-12-01T20:35:02.011Z,1.08
2017-12-01T20:37:29.732Z,1.41
2017-12-01T20:39:57.193Z,1.43
2017-12-01T20:42:24.701Z,1.32
2017-12-01T20:44:52.431Z,1.29
2017-12-01T20:47:19.886Z,1.44
2017-12-01T20:49:47.342Z,1.44
2017-12-01T20:52:15.104Z,1.32
2017-12-01T20:54:42.573Z,1.42
2017-12-01T20:57:10.427Z,1.45
2017-12-01T20:59:38.112Z,1.16
2017-12-01T21:02:05.569Z,1.24
2017-12-01T21:04:33.016Z,1.57
2017-12-01T21:07:00.796Z,1.24
2017-12-01T21:09:29.020Z,1.29
2017-12-01T21:11:56.507Z,1.12
2017-12-01T21:14:25.186Z,1.35
2017-12-01T21:16:52.967Z,1.07
2017-12-01T21:19:20.432Z,1.16
2017-12-01T21:21:48.316Z,1.31
2017-12-01T21:24:15.781Z,1.29
2017-12-01T21:26:43.238Z,1.01
2017-12-01T21:29:11.000Z,1.15
2017-12-01T21:31:38.482Z,1.22
2017-12-01T21:34:06.705Z,0.91
2017-12-01T21:36:35.472Z,1.98
2017-12-01T21:39:03.962Z,2.21
2017-12-01T21:41:31.460Z,1.31
2017-12-01T21:43:59.138Z,1.20
2017-12-01T21:46:27.090Z,1.28
2017-12-01T21:48:55.207Z,1.26
2017-12-01T21:51:23.196Z,1.07
2017-12-01T21:53:50.845Z,0.99
2017-12-01T21:56:18.326Z,1.07
2017-12-01T21:58:47.541Z,1.11
2017-12-01T22:01:16.010Z,1.05
2017-12-01T22:03:43.669Z,0.96
2017-12-01T22:06:11.497Z,0.95
2017-12-01T22:08:38.957Z,0.70
2017-12-01T22:11:07.541Z,0.80
2017-12-01T22:13:36.689Z,0.85
2017-12-01T22:16:04.362Z,0.90
2017-12-01T22:18:32.229Z,0.88
2017-12-01T22:21:00.253Z,1.04
2017-12-01T22:23:28.332Z,0.92
2017-12-01T22:25:57.687Z,0.90
2017-12-01T22:28:26.928Z,0.77
2017-12-01T22:30:54.494Z,0.80
2017-12-01T22:33:21.958Z,1.12
2017-12-01T22:35:49.926Z,1.10
2017-12-01T22:38:18.390Z,0.86
2017-12-01T22:40:47.153Z,0.83
2017-12-01T22:43:14.774Z,0.83
2017-12-01T22:45:42.236Z,0.99
2017-12-01T22:48:09.707Z,1.01
2017-12-01T22:50:38.469Z,0.96
2017-12-01T22:53:06.137Z,0.95
2017-12-01T22:55:33.921Z,0.97
2017-12-01T22:58:01.675Z,1.05
2017-12-01T23:00:30.277Z,0.88
2017-12-01T23:02:58.920Z,1.07
2017-12-01T23:05:27.440Z,0.99
2017-12-01T23:07:54.965Z,0.93
2017-12-01T23:10:22.412Z,1.02
2017-12-01T23:12:50.135Z,0.75
2017-12-01T23:15:17.608Z,0.64
2017-12-01T23:17:45.054Z,0.66
2017-12-01T23:20:12.858Z,0.69
2017-12-01T23:22:40.313Z,0.93
2017-12-01T23:25:07.760Z,0.87
2017-12-01T23:27:35.502Z,0.74
2017-12-01T23:30:02.968Z,0.89
2017-12-01T23:32:30.422Z,0.89
2017-12-01T23:34:58.194Z,0.64
2017-12-01T23:37:25.645Z,0.84
2017-12-01T23:39:53.098Z,0.61
2017-12-01T23:42:20.889Z,0.89
2017-12-01T23:44:48.341Z,0.57
2017-12-01T23:47:15.803Z,0.72
2017-12-01T23:49:43.553Z,0.97
2017-12-01T23:52:11.014Z,0.72
2017-12-01T23:54:38.472Z,0.92
2017-12-01T23:57:06.241Z,0.96
2017-12-01T23:59:33.698Z,0.62
